Alsace — PB4786 — position and weather

sailwx.info

Track history (hours):
 
Tides and Currents Weather Stations Pressure Air Temp Water Temp Dewpoint Dewpoint Depression Visibility Wind Speed Wind Dir Waves Ship Positions

Alsace

Last reported at 2016-Aug-29 14:33 UTC. Time now 2016-Aug-29 14:48 UTC.
Position N 51°53' E 004°25'.

Length 178 m; draft 1.8 m.

Type: Ship. MMSI: 244660556.

Date/timePositionNaut miles runAvg speedWind from/ knotsBaromVisibWave heightAir tempDewpointWater temp
2016-Aug-29 14:33N 51°53' E 004°25'2 1.6
2016-Aug-29 13:33N 51°54' E 004°23'0 0.5
2016-Aug-29 12:33N 51°54' E 004°24'1 1.1
2016-Aug-29 11:33N 51°53' E 004°26'0 0.0
2016-Aug-29 10:33N 51°53' E 004°26'1 0.7
2016-Aug-29 09:34N 51°54' E 004°26'7 6.9
2016-Aug-29 08:33N 51°53' E 004°37'3 3.0
2016-Aug-29 07:33N 51°51' E 004°40'0 0.0
2016-Aug-29 06:33N 51°51' E 004°40'0 0.0
2016-Aug-29 05:33N 51°51' E 004°40'0 0.0
2016-Aug-29 04:33N 51°51' E 004°40'3 2.9
2016-Aug-29 03:33N 51°49' E 004°44'8 8.4
2016-Aug-29 02:33N 51°49' E 004°58'9 9.0
2016-Aug-29 01:33N 51°49' E 005°12'48 8.0
2016-Aug-28 19:33N 51°40' E 006°29'8 7.3
2016-Aug-28 18:31N 51°34' E 006°37'20 6.5
2016-Aug-28 15:25N 51°15' E 006°46'4 4.8
2016-Aug-28 14:33N 51°11' E 006°48'14 6.9
2016-Aug-28 12:32N 50°59' E 006°59'9 6.7
2016-Aug-28 11:08N 50°50' E 006°59'6 9.0
2016-Aug-28 10:32N 50°46' E 007°05'97 7.2
2016-Aug-27 21:05N 49°25' E 008°30'6 9.5
2016-Aug-27 20:29N 49°20' E 008°27'7 7.8
2016-Aug-27 19:34N 49°13' E 008°23'1110.2
2016-Aug-27 18:32N 49°03' E 008°18'2 0.1
2016-Aug-26 01:33N 49°01' E 008°18'6 5.5
2016-Aug-26 00:34N 49°06' E 008°21'5 5.0
2016-Aug-25 23:34N 49°11' E 008°23'5 4.7
2016-Aug-25 22:33N 49°15' E 008°25'98 4.6
2016-Aug-25 01:10N 50°41' E 007°11'4 5.9
2016-Aug-25 00:29N 50°44' E 007°07'6 5.9
2016-Aug-24 23:32N 50°49' E 007°02'5 3.9
2016-Aug-24 22:14N 50°54' E 007°02'15 4.9
2016-Aug-24 19:10N 51°07' E 006°52'3 3.2
2016-Aug-24 18:21N 51°09' E 006°48'4 4.6
2016-Aug-24 17:33N 51°11' E 006°44'18 4.2
2016-Aug-24 13:11N 51°29' E 006°41'3 4.4
2016-Aug-24 12:24N 51°33' E 006°41'4 4.1
2016-Aug-24 11:28N 51°35' E 006°36'4 4.9
2016-Aug-24 10:33N 51°39' E 006°33'44 6.0
2016-Aug-24 03:14N 51°51' E 005°25'14 6.6
2016-Aug-24 01:05N 51°49' E 005°02'5 8.6
2016-Aug-24 00:33N 51°50' E 004°55'8 8.3
2016-Aug-23 23:33N 51°45' E 004°44'6 1.6
2016-Aug-23 19:24N 51°41' E 004°36'0 0.0
2016-Aug-23 18:06N 51°41' E 004°36'0 0.0
2016-Aug-23 17:08N 51°41' E 004°36'0 0.0
2016-Aug-23 16:33N 51°41' E 004°36'4 3.8
2016-Aug-23 15:33N 51°44' E 004°38'4 3.7
2016-Aug-23 14:33N 51°48' E 004°37'6 6.3
2016-Aug-23 13:33N 51°50' E 004°28'6 5.9
2016-Aug-23 12:34N 51°53' E 004°20'4 3.5
2016-Aug-23 11:33N 51°53' E 004°14'7 6.6
2016-Aug-23 10:33N 51°57' E 004°05'2 1.5
2016-Aug-23 09:34N 51°57' E 004°02'2 2.0
2016-Aug-23 08:34N 51°59' E 004°01'1 1.1
2016-Aug-23 07:34N 51°57' E 004°01'0 0.0
2016-Aug-23 06:34N 51°57' E 004°01'1 0.8
2016-Aug-23 05:34N 51°57' E 003°59'1 1.4
2016-Aug-23 04:34N 51°58' E 004°00'2 1.5
2016-Aug-23 03:34N 51°58' E 004°03'2 1.6
2016-Aug-23 02:34N 51°57' E 004°04'0 0.0
2016-Aug-23 01:33N 51°57' E 004°04'1 0.8
2016-Aug-23 00:33N 51°58' E 004°04'0 0.2
2016-Aug-22 23:33N 51°58' E 004°04'0 0.0
2016-Aug-22 22:33N 51°58' E 004°04'0 0.0
2016-Aug-22 21:33N 51°58' E 004°04'7 6.8
2016-Aug-22 20:33N 51°54' E 004°13'6 6.4
2016-Aug-22 19:33N 51°54' E 004°24'2 1.6
2016-Aug-22 18:33N 51°54' E 004°26'0 0.0
2016-Aug-22 17:33N 51°54' E 004°26'0 0.3
2016-Aug-22 16:33N 51°53' E 004°26'0 0.0
2016-Aug-22 15:33N 51°53' E 004°26'0 0.2
2016-Aug-22 14:33N 51°54' E 004°26'0 0.2
2016-Aug-22 13:33N 51°54' E 004°26'1 1.4
2016-Aug-22 12:33N 51°53' E 004°24'4 4.1
2016-Aug-22 11:32N 51°55' E 004°30'7 7.1
2016-Aug-22 10:33N 51°51' E 004°39'1 0.6
2016-Aug-22 09:34N 51°51' E 004°40'0 0.0
2016-Aug-22 08:33N 51°51' E 004°40'0 0.0
2016-Aug-22 07:32N 51°51' E 004°40'0 0.0
2016-Aug-22 06:33N 51°51' E 004°40'0 0.0
2016-Aug-22 05:33N 51°51' E 004°40'0 0.0
2016-Aug-22 04:33N 51°51' E 004°40'0 0.0
2016-Aug-22 03:33N 51°51' E 004°40'0 0.0
2016-Aug-22 02:32N 51°51' E 004°40'3 2.9
2016-Aug-22 01:34N 51°49' E 004°44'8 7.6
2016-Aug-22 00:33N 51°50' E 004°57'10 8.4
2016-Aug-21 23:26N 51°49' E 005°12'47 7.7
2016-Aug-21 17:22N 51°43' E 006°27'7 8.4
2016-Aug-21 16:33N 51°39' E 006°36'23 6.8
2016-Aug-21 13:07N 51°16' E 006°42'3 4.8
2016-Aug-21 12:34N 51°14' E 006°44'7 5.9
2016-Aug-21 11:27N 51°09' E 006°51'16 8.1
2016-Aug-21 09:29N 50°54' E 006°59'9 6.7
2016-Aug-21 08:07N 50°46' E 007°05'99 7.1
2016-Aug-20 18:03N 49°23' E 008°30'4 8.1
2016-Aug-20 17:32N 49°19' E 008°28'8 8.5
2016-Aug-20 16:33N 49°11' E 008°23'1010.2
2016-Aug-20 15:33N 49°01' E 008°18'  
Track history (hours):
 
Tides and Currents Weather Stations Pressure Air Temp Water Temp Dewpoint Dewpoint Depression Visibility Wind Speed Wind Dir Waves Ship Positions

Alsace

Last reported at 2016-Aug-29 14:33 UTC. Time now 2016-Aug-29 14:48 UTC.
Position N 51°53' E 004°25'.

Length 178 m; draft 1.8 m.

Type: Ship. MMSI: 244660556.

Date/timePositionNaut miles runAvg speedWind from/ knotsBaromVisibWave heightAir tempDewpointWater temp
2016-Aug-29 14:33N 51°53' E 004°25'2 1.6
2016-Aug-29 13:33N 51°54' E 004°23'0 0.5
2016-Aug-29 12:33N 51°54' E 004°24'1 1.1
2016-Aug-29 11:33N 51°53' E 004°26'0 0.0
2016-Aug-29 10:33N 51°53' E 004°26'1 0.7
2016-Aug-29 09:34N 51°54' E 004°26'7 6.9
2016-Aug-29 08:33N 51°53' E 004°37'3 3.0
2016-Aug-29 07:33N 51°51' E 004°40'0 0.0
2016-Aug-29 06:33N 51°51' E 004°40'0 0.0
2016-Aug-29 05:33N 51°51' E 004°40'0 0.0
2016-Aug-29 04:33N 51°51' E 004°40'3 2.9
2016-Aug-29 03:33N 51°49' E 004°44'8 8.4
2016-Aug-29 02:33N 51°49' E 004°58'9 9.0
2016-Aug-29 01:33N 51°49' E 005°12'48 8.0
2016-Aug-28 19:33N 51°40' E 006°29'8 7.3
2016-Aug-28 18:31N 51°34' E 006°37'20 6.5
2016-Aug-28 15:25N 51°15' E 006°46'4 4.8
2016-Aug-28 14:33N 51°11' E 006°48'14 6.9
2016-Aug-28 12:32N 50°59' E 006°59'9 6.7
2016-Aug-28 11:08N 50°50' E 006°59'6 9.0
2016-Aug-28 10:32N 50°46' E 007°05'97 7.2
2016-Aug-27 21:05N 49°25' E 008°30'6 9.5
2016-Aug-27 20:29N 49°20' E 008°27'7 7.8
2016-Aug-27 19:34N 49°13' E 008°23'1110.2
2016-Aug-27 18:32N 49°03' E 008°18'2 0.1
2016-Aug-26 01:33N 49°01' E 008°18'6 5.5
2016-Aug-26 00:34N 49°06' E 008°21'5 5.0
2016-Aug-25 23:34N 49°11' E 008°23'5 4.7
2016-Aug-25 22:33N 49°15' E 008°25'98 4.6
2016-Aug-25 01:10N 50°41' E 007°11'4 5.9
2016-Aug-25 00:29N 50°44' E 007°07'6 5.9
2016-Aug-24 23:32N 50°49' E 007°02'5 3.9
2016-Aug-24 22:14N 50°54' E 007°02'15 4.9
2016-Aug-24 19:10N 51°07' E 006°52'3 3.2
2016-Aug-24 18:21N 51°09' E 006°48'4 4.6
2016-Aug-24 17:33N 51°11' E 006°44'18 4.2
2016-Aug-24 13:11N 51°29' E 006°41'3 4.4
2016-Aug-24 12:24N 51°33' E 006°41'4 4.1
2016-Aug-24 11:28N 51°35' E 006°36'4 4.9
2016-Aug-24 10:33N 51°39' E 006°33'44 6.0
2016-Aug-24 03:14N 51°51' E 005°25'14 6.6
2016-Aug-24 01:05N 51°49' E 005°02'5 8.6
2016-Aug-24 00:33N 51°50' E 004°55'8 8.3
2016-Aug-23 23:33N 51°45' E 004°44'6 1.6
2016-Aug-23 19:24N 51°41' E 004°36'0 0.0
2016-Aug-23 18:06N 51°41' E 004°36'0 0.0
2016-Aug-23 17:08N 51°41' E 004°36'0 0.0
2016-Aug-23 16:33N 51°41' E 004°36'4 3.8
2016-Aug-23 15:33N 51°44' E 004°38'4 3.7
2016-Aug-23 14:33N 51°48' E 004°37'6 6.3
2016-Aug-23 13:33N 51°50' E 004°28'6 5.9
2016-Aug-23 12:34N 51°53' E 004°20'4 3.5
2016-Aug-23 11:33N 51°53' E 004°14'7 6.6
2016-Aug-23 10:33N 51°57' E 004°05'2 1.5
2016-Aug-23 09:34N 51°57' E 004°02'2 2.0
2016-Aug-23 08:34N 51°59' E 004°01'1 1.1
2016-Aug-23 07:34N 51°57' E 004°01'0 0.0
2016-Aug-23 06:34N 51°57' E 004°01'1 0.8
2016-Aug-23 05:34N 51°57' E 003°59'1 1.4
2016-Aug-23 04:34N 51°58' E 004°00'2 1.5
2016-Aug-23 03:34N 51°58' E 004°03'2 1.6
2016-Aug-23 02:34N 51°57' E 004°04'0 0.0
2016-Aug-23 01:33N 51°57' E 004°04'1 0.8
2016-Aug-23 00:33N 51°58' E 004°04'0 0.2
2016-Aug-22 23:33N 51°58' E 004°04'0 0.0
2016-Aug-22 22:33N 51°58' E 004°04'0 0.0
2016-Aug-22 21:33N 51°58' E 004°04'7 6.8
2016-Aug-22 20:33N 51°54' E 004°13'6 6.4
2016-Aug-22 19:33N 51°54' E 004°24'2 1.6
2016-Aug-22 18:33N 51°54' E 004°26'0 0.0
2016-Aug-22 17:33N 51°54' E 004°26'0 0.3
2016-Aug-22 16:33N 51°53' E 004°26'0 0.0
2016-Aug-22 15:33N 51°53' E 004°26'0 0.2
2016-Aug-22 14:33N 51°54' E 004°26'0 0.2
2016-Aug-22 13:33N 51°54' E 004°26'1 1.4
2016-Aug-22 12:33N 51°53' E 004°24'4 4.1
2016-Aug-22 11:32N 51°55' E 004°30'7 7.1
2016-Aug-22 10:33N 51°51' E 004°39'1 0.6
2016-Aug-22 09:34N 51°51' E 004°40'0 0.0
2016-Aug-22 08:33N 51°51' E 004°40'0 0.0
2016-Aug-22 07:32N 51°51' E 004°40'0 0.0
2016-Aug-22 06:33N 51°51' E 004°40'0 0.0
2016-Aug-22 05:33N 51°51' E 004°40'0 0.0
2016-Aug-22 04:33N 51°51' E 004°40'0 0.0
2016-Aug-22 03:33N 51°51' E 004°40'0 0.0
2016-Aug-22 02:32N 51°51' E 004°40'3 2.9
2016-Aug-22 01:34N 51°49' E 004°44'8 7.6
2016-Aug-22 00:33N 51°50' E 004°57'10 8.4
2016-Aug-21 23:26N 51°49' E 005°12'47 7.7
2016-Aug-21 17:22N 51°43' E 006°27'7 8.4
2016-Aug-21 16:33N 51°39' E 006°36'23 6.8
2016-Aug-21 13:07N 51°16' E 006°42'3 4.8
2016-Aug-21 12:34N 51°14' E 006°44'7 5.9
2016-Aug-21 11:27N 51°09' E 006°51'16 8.1
2016-Aug-21 09:29N 50°54' E 006°59'9 6.7
2016-Aug-21 08:07N 50°46' E 007°05'99 7.1
2016-Aug-20 18:03N 49°23' E 008°30'4 8.1
2016-Aug-20 17:32N 49°19' E 008°28'8 8.5
2016-Aug-20 16:33N 49°11' E 008°23'1010.2
2016-Aug-20 15:33N 49°01' E 008°18'  

Dump ship's entire track history